Selma, VA

7:01 PM EDT on May 06, 2015 (GMT -0400)
Roanoke Regional-Woodrum | | Change Station
CLOSE
Current Station
Airport
Location: Roanoke,
Elevation: 1175 ft
Nearby Weather Stations

Elev 1175 ft 37.32 °N, 79.97 °W | Updated 7 minutes ago

Mostly Cloudy
Mostly Cloudy
66 °F
Feels Like 66 °F
N
16
Wind Variable Wind from NNE
Gusts 36 mph

Today
High -- | Low -- °F
--% Chance of Precip.
Yesterday
High -- | Low -- °F
Precip. -- in
6:18 AM 8:14 PM
Waning Gibbous, 92% visible
Pressure 30.19 in
Visibility 1.5 miles
Clouds Few 2200 ft
Mostly Cloudy 6000 ft
Overcast 8000 ft
Dew Point 63 °F
Humidity 90%
Rainfall 0.25 in
Snow Depth Not available.
UV 0 out of 12
Pollen 8.40 out of 12
Air Quality Not available.
Flu Activity Sporadic
METAR KROA 062254Z 02014G31KT 1 1/2SM +TSRA BR FEW022 BKN060CB OVC080 19/17 A3021 RMK AO2 PK WND 01031/2245 WSHFT 2228 RAB42 TSB29 PRESRR SLP222 OCNL LTGICCG N-S TS OHD MOV S P0025 T01890172

More Conditions Fewer Conditions

Pressure 30.19 in
Visibility 1.5 miles
Clouds Few 2200 ft
Mostly Cloudy 6000 ft
Overcast 8000 ft
Dew Point 63 °F
Humidity 90%
Rainfall 0.25 in
Snow Depth Not available.
UV 0 out of 12
Pollen 8.40 out of 12
Air Quality Not available.
Flu Activity Sporadic
METAR KROA 062254Z 02014G31KT 1 1/2SM +TSRA BR FEW022 BKN060CB OVC080 19/17 A3021 RMK AO2 PK WND 01031/2245 WSHFT 2228 RAB42 TSB29 PRESRR SLP222 OCNL LTGICCG N-S TS OHD MOV S P0025 T01890172

More Conditions Fewer Conditions

10-Day Weather Forecast

Almanac

Astronomy

May. 06, 2015 Rise Set
Actual Time
Civil Twilight
Nautical Twilight
Astronomical Twilight
Moon
Length of Visible Light
Length of Day
Tomorrow will be .
, % of the Moon is Illuminated

Today's Extremes

State Highs State Lows

Community

WunderPhotos

Upload Photos

1,819,039 photos uploaded!

WunderBlogs® & News

Nearby

Air Quality

  Air Quality AQ Index Pollutant
Not available.

Snow Depth

Station Depth Elevation

Earthquake Activity

City Distance Mag. Time & Date
Minimum magnitude displayed is 2.5.

Coastal Water Temperatures

Place Temperature

Stations

Nearby Weather Stations

Station Location Temp. Windchill Dew Point Humidity Wind Precip. Elev Updated Type